createdAt,value
2019-06-10T00:07:57.962Z,17.2
2019-06-10T00:18:26.940Z,17.0
2019-06-10T00:28:24.674Z,16.9
2019-06-10T00:39:13.328Z,16.6
2019-06-10T00:49:26.818Z,16.6
2019-06-10T00:59:41.305Z,16.4
2019-06-10T01:10:26.478Z,16.1
2019-06-10T01:20:41.149Z,16.1
2019-06-10T01:30:55.459Z,15.9
2019-06-10T01:41:12.421Z,15.7
2019-06-10T01:51:57.317Z,15.3
2019-06-10T02:02:15.769Z,15.3
2019-06-10T02:12:24.668Z,15.1
2019-06-10T02:22:41.801Z,14.9
2019-06-10T02:33:02.263Z,14.7
2019-06-10T02:43:14.261Z,14.6
2019-06-10T02:53:58.443Z,14.4
2019-06-10T03:04:16.355Z,14.3
2019-06-10T03:14:28.685Z,14.2
2019-06-10T03:25:16.341Z,14.1
2019-06-10T03:35:28.577Z,14.1
2019-06-10T03:45:44.124Z,14.0
2019-06-10T03:56:02.558Z,14.0
2019-06-10T04:06:15.855Z,14.0
2019-06-10T04:17:02.626Z,14.0
2019-06-10T04:27:12.319Z,14.0
2019-06-10T04:37:29.653Z,14.0
2019-06-10T04:47:43.183Z,14.1
2019-06-10T04:57:57.556Z,14.1
2019-06-10T05:08:13.206Z,14.2
2019-06-10T05:18:30.947Z,14.3
2019-06-10T05:28:55.385Z,14.4
2019-06-10T05:39:12.185Z,14.5
2019-06-10T05:49:25.953Z,14.6
2019-06-10T05:59:37.993Z,14.8
2019-06-10T06:09:53.530Z,15.0
2019-06-10T06:20:13.225Z,15.3
2019-06-10T06:30:22.738Z,15.6
2019-06-10T06:41:08.564Z,16.3
2019-06-10T06:51:33.685Z,16.3
2019-06-10T07:01:39.182Z,16.7
2019-06-10T07:11:53.871Z,17.3
2019-06-10T07:22:12.598Z,18.0
2019-06-10T07:32:55.110Z,19.3
2019-06-10T07:43:08.850Z,19.3
2019-06-10T07:53:23.171Z,19.7
2019-06-10T08:03:38.278Z,20.1
2019-06-10T08:13:50.024Z,20.7
2019-06-10T08:24:35.286Z,22.0
2019-06-10T08:34:47.971Z,22.0
2019-06-10T08:45:07.647Z,22.6
2019-06-10T08:55:53.763Z,25.4
2019-06-10T09:07:27.643Z,26.9
2019-06-10T09:17:44.325Z,26.9
2019-06-10T09:27:57.015Z,27.5
2019-06-10T09:38:10.631Z,27.8
2019-06-10T09:48:56.715Z,29.4
2019-06-10T09:59:07.635Z,29.4
2019-06-10T10:09:18.895Z,29.6
2019-06-10T10:19:32.914Z,30.3
2019-06-10T10:29:48.561Z,31.1
2019-06-10T10:40:03.176Z,32.2
2019-06-10T10:50:37.314Z,33.4
2019-06-10T11:00:54.934Z,33.4
2019-06-10T11:11:05.876Z,33.5
2019-06-10T11:21:34.484Z,33.5
2019-06-10T11:32:19.550Z,34.3
2019-06-10T11:43:07.054Z,34.6
2019-06-10T11:53:54.581Z,34.6
2019-06-10T12:04:04.340Z,34.6
2019-06-10T12:14:53.448Z,34.6
2019-06-10T12:25:27.178Z,34.6
2019-06-10T12:35:47.512Z,34.7
2019-06-10T12:46:01.741Z,34.7
2019-06-10T12:57:16.530Z,34.8
2019-06-10T13:07:27.964Z,34.8
2019-06-10T13:17:43.889Z,34.9
2019-06-10T13:27:59.944Z,35.1
2019-06-10T13:38:10.765Z,35.3
2019-06-10T13:48:57.322Z,35.4
2019-06-10T13:59:25.027Z,35.4
2019-06-10T14:09:38.341Z,35.4
2019-06-10T14:20:25.776Z,34.9
2019-06-10T14:30:42.873Z,34.9
2019-06-10T14:40:54.283Z,34.7
2019-06-10T14:51:09.421Z,34.4
2019-06-10T15:01:25.392Z,34.2
2019-06-10T15:11:36.742Z,33.9
2019-06-10T15:21:52.351Z,33.5
2019-06-10T15:32:14.081Z,33.0
2019-06-10T15:42:22.550Z,32.4
2019-06-10T15:52:34.754Z,31.8
2019-06-10T16:02:49.689Z,29.9
2019-06-10T16:13:03.962Z,28.8
2019-06-10T16:23:19.694Z,28.2
2019-06-10T16:33:35.033Z,27.9
2019-06-10T16:44:26.911Z,28.0
2019-06-10T16:55:27.972Z,28.0
2019-06-10T17:05:43.712Z,28.1
2019-06-10T17:15:58.424Z,28.0
2019-06-10T17:26:22.747Z,27.8
2019-06-10T17:36:35.258Z,27.7
2019-06-10T17:46:55.264Z,27.5
2019-06-10T17:57:12.753Z,27.4
2019-06-10T18:07:24.054Z,27.2
2019-06-10T18:17:38.316Z,26.8
2019-06-10T18:27:53.802Z,26.0
2019-06-10T18:39:12.458Z,24.4
2019-06-10T18:50:07.606Z,23.6
2019-06-10T19:00:39.909Z,23.6
2019-06-10T19:11:19.147Z,22.3
2019-06-10T19:23:30.205Z,21.7
2019-06-10T19:34:25.710Z,21.3
2019-06-10T19:45:13.410Z,20.9
2019-06-10T19:56:02.578Z,20.5
2019-06-10T20:06:14.324Z,20.5
2019-06-10T20:16:30.520Z,20.1
2019-06-10T20:27:19.136Z,19.5
2019-06-10T20:38:15.408Z,19.2
2019-06-10T20:49:13.373Z,19.1
2019-06-10T20:59:26.200Z,19.1
2019-06-10T21:09:39.531Z,18.9
2019-06-10T21:19:54.822Z,18.7
2019-06-10T21:30:41.941Z,18.5
2019-06-10T21:41:24.511Z,18.5
2019-06-10T22:02:43.180Z,18.3
2019-06-10T22:12:55.728Z,18.2
2019-06-10T22:23:44.581Z,18.2
2019-06-10T22:34:32.922Z,18.0
2019-06-10T22:45:29.200Z,18.0
2019-06-10T22:55:48.325Z,18.0
2019-06-10T23:06:06.877Z,17.9
2019-06-10T23:16:26.622Z,17.8
2019-06-10T23:27:13.977Z,17.6
2019-06-10T23:38:36.123Z,17.5
2019-06-10T23:49:12.333Z,17.5
2019-06-10T23:59:26.166Z,17.3
